createdAt,value
2015-12-10T00:00:38.494Z,93.6
2015-12-10T00:01:38.434Z,94.2
2015-12-10T00:02:38.358Z,94.8
2015-12-10T00:03:38.315Z,95
2015-12-10T00:04:38.239Z,94.5
2015-12-10T00:05:38.180Z,94
2015-12-10T00:06:38.136Z,94
2015-12-10T00:07:38.076Z,93.9
2015-12-10T00:08:38.251Z,94.7
2015-12-10T00:09:37.957Z,95
2015-12-10T00:10:37.897Z,94.2
2015-12-10T00:11:37.853Z,94.2
2015-12-10T00:12:37.794Z,93.6
2015-12-10T00:13:37.733Z,94
2015-12-10T00:14:37.674Z,93.7
2015-12-10T00:15:37.613Z,94.2
2015-12-10T00:16:37.554Z,94.1
2015-12-10T00:17:37.494Z,94.1
2015-12-10T00:18:37.435Z,94.1
2015-12-10T00:19:37.375Z,93.7
2015-12-10T00:20:37.331Z,93.2
2015-12-10T00:21:37.255Z,93.7
2015-12-10T00:22:37.210Z,93.7
2015-12-10T00:23:37.152Z,93.7
2015-12-10T00:24:37.091Z,94
2015-12-10T00:25:37.032Z,94.2
2015-12-10T00:26:37.207Z,93.2
2015-12-10T00:27:36.912Z,92.9
2015-12-10T00:28:36.869Z,92.9
2015-12-10T00:29:36.808Z,93.7
2015-12-10T00:30:36.746Z,93
2015-12-10T00:31:36.832Z,93.2
2015-12-10T00:32:36.624Z,93.6
2015-12-10T00:33:36.565Z,93.4
2015-12-10T00:34:36.521Z,93.4
2015-12-10T00:35:36.460Z,93.7
2015-12-10T00:36:36.401Z,93.7
2015-12-10T00:37:36.341Z,94.2
2015-12-10T00:38:36.282Z,94.8
2015-12-10T00:39:36.221Z,93.9
2015-12-10T00:40:36.178Z,93
2015-12-10T00:41:36.337Z,92.7
2015-12-10T00:42:36.058Z,93
2015-12-10T00:43:35.999Z,93.6
2015-12-10T00:44:35.938Z,93.4
2015-12-10T00:45:35.894Z,93.1
2015-12-10T00:46:35.819Z,93.5
2015-12-10T00:47:35.760Z,93.7
2015-12-10T00:48:35.699Z,93.2
2015-12-10T00:49:35.894Z,93.1
2015-12-10T00:50:35.599Z,92.9
2015-12-10T00:51:35.539Z,93.1
2015-12-10T00:52:35.479Z,92.6
2015-12-10T00:53:35.405Z,93
2015-12-10T00:54:35.360Z,93.5
2015-12-10T00:55:35.305Z,93.6
2015-12-10T00:56:35.246Z,92.5
2015-12-10T00:57:35.186Z,92.8
2015-12-10T00:58:35.127Z,93
2015-12-10T00:59:35.066Z,93
2015-12-10T01:00:35.024Z,92.2
2015-12-10T01:01:34.965Z,92.8
2015-12-10T01:02:34.889Z,92.5
2015-12-10T01:03:34.830Z,92.5
2015-12-10T01:04:34.785Z,92.8
2015-12-10T01:05:34.725Z,92.8
2015-12-10T01:06:34.665Z,92.1
2015-12-10T01:07:34.606Z,91.6
2015-12-10T01:08:34.543Z,92.4
2015-12-10T01:09:34.718Z,92.7
2015-12-10T01:10:34.423Z,92.8
2015-12-10T01:11:34.379Z,92.4
2015-12-10T01:12:34.320Z,93.2
2015-12-10T01:13:34.260Z,93.8
2015-12-10T01:14:34.201Z,93.5
2015-12-10T01:15:34.156Z,93
2015-12-10T01:16:34.081Z,93.1
2015-12-10T01:17:34.036Z,92.7
2015-12-10T01:18:33.961Z,93.1
2015-12-10T01:19:33.902Z,93.7
2015-12-10T01:20:33.842Z,93.5
2015-12-10T01:21:33.798Z,93.1
2015-12-10T01:22:36.597Z,92.5
2015-12-10T01:23:33.662Z,93.6
2015-12-10T01:24:33.619Z,93.7
2015-12-10T01:25:33.558Z,93.1
2015-12-10T01:26:33.514Z,93
2015-12-10T01:27:33.439Z,92.5
2015-12-10T01:28:33.395Z,93.3
2015-12-10T01:29:33.320Z,93.1
2015-12-10T01:30:33.261Z,92.5
2015-12-10T01:31:33.216Z,92.3
2015-12-10T01:32:33.156Z,92.4
2015-12-10T01:33:33.097Z,92.6
2015-12-10T01:34:33.036Z,93.1
2015-12-10T01:35:32.977Z,92.7
2015-12-10T01:36:32.933Z,93
2015-12-10T01:37:32.888Z,92.3
2015-12-10T01:38:32.798Z,93.6
2015-12-10T01:39:32.739Z,93.1
2015-12-10T01:40:32.694Z,93
2015-12-10T01:41:32.634Z,92.9
2015-12-10T01:42:32.574Z,93.3
2015-12-10T01:43:32.734Z,93.1
2015-12-10T01:44:32.439Z,93
2015-12-10T01:45:32.395Z,93.4
2015-12-10T01:46:32.351Z,93.1
2015-12-10T01:47:32.292Z,93.2
2015-12-10T01:48:32.214Z,92.8
2015-12-10T01:49:32.391Z,92.1
2015-12-10T01:50:32.125Z,92.3
2015-12-10T01:51:32.065Z,91.7
2015-12-10T01:52:31.990Z,91.9
2015-12-10T01:53:32.164Z,92.7
2015-12-10T01:54:32.104Z,92.1
2015-12-10T01:55:31.811Z,92.5
2015-12-10T01:56:31.767Z,93.1
2015-12-10T01:57:31.691Z,92.6
2015-12-10T01:58:31.631Z,92.4
2015-12-10T01:59:31.588Z,92.8
2015-12-10T02:00:31.522Z,93.1
2015-12-10T02:01:31.463Z,93.1
2015-12-10T02:02:31.403Z,92.2
2015-12-10T02:03:31.344Z,92.1
2015-12-10T02:04:31.284Z,92.1
2015-12-10T02:05:31.224Z,92
2015-12-10T02:06:31.180Z,92.6
2015-12-10T02:07:31.120Z,93
2015-12-10T02:08:31.045Z,93.5
2015-12-10T02:09:30.986Z,93.6
2015-12-10T02:10:30.941Z,93.2
2015-12-10T02:11:30.881Z,93.2
2015-12-10T02:12:30.821Z,93.5
2015-12-10T02:13:30.761Z,93.2
2015-12-10T02:14:30.702Z,93.4
2015-12-10T02:15:30.641Z,93.5
2015-12-10T02:16:30.597Z,93.7
2015-12-10T02:17:30.538Z,93.8
2015-12-10T02:18:30.463Z,94.1
2015-12-10T02:19:30.419Z,94.3
2015-12-10T02:20:30.359Z,94.6
2015-12-10T02:21:30.300Z,94.7
2015-12-10T02:22:30.239Z,94.1
2015-12-10T02:23:30.180Z,94.1
2015-12-10T02:24:30.119Z,93.7
2015-12-10T02:25:30.060Z,93.3
2015-12-10T02:26:29.263Z,93
2015-12-10T02:27:29.938Z,93.1
2015-12-10T02:28:29.910Z,93.2
2015-12-10T02:29:29.835Z,93.2
2015-12-10T02:30:29.774Z,93.1
2015-12-10T02:31:29.714Z,92.9
2015-12-10T02:32:29.655Z,92.8
2015-12-10T02:33:29.596Z,92.5
2015-12-10T02:34:29.535Z,92.2
2015-12-10T02:35:29.476Z,92
2015-12-10T02:36:29.432Z,91.9
2015-12-10T02:37:29.371Z,91.4
2015-12-10T02:38:29.312Z,92.9
2015-12-10T02:39:29.236Z,93.3
2015-12-10T02:40:29.192Z,92.5
2015-12-10T02:41:29.133Z,93.1
2015-12-10T02:42:29.073Z,93.2
2015-12-10T02:43:29.013Z,93.8
2015-12-10T02:44:28.954Z,93.4
2015-12-10T02:45:28.893Z,94
2015-12-10T02:46:28.849Z,92.6
2015-12-10T02:47:28.790Z,93.1
2015-12-10T02:48:27.980Z,92.7
2015-12-10T02:49:28.654Z,93.9
2015-12-10T02:50:28.610Z,94.5
2015-12-10T02:51:28.566Z,93.3
2015-12-10T02:52:28.491Z,93
2015-12-10T02:53:28.432Z,93.8
2015-12-10T02:54:28.824Z,93.8
2015-12-10T02:55:28.312Z,93.9
2015-12-10T02:56:28.252Z,93.6
2015-12-10T02:57:28.193Z,93.5
2015-12-10T02:58:28.132Z,93.9
2015-12-10T02:59:28.072Z,94.1
2015-12-10T03:00:28.044Z,93.9
2015-12-10T03:01:27.968Z,93.6
2015-12-10T03:02:27.909Z,94.3
2015-12-10T03:03:28.084Z,94
2015-12-10T03:04:27.790Z,92.9
2015-12-10T03:05:27.729Z,93.8
2015-12-10T03:06:27.701Z,94.4
2015-12-10T03:07:27.609Z,94.3
2015-12-10T03:08:27.550Z,93.8
2015-12-10T03:09:27.491Z,93.5
2015-12-10T03:10:27.431Z,93.9
2015-12-10T03:11:27.403Z,93.8
2015-12-10T03:12:27.327Z,93.8
2015-12-10T03:13:27.267Z,94.5
2015-12-10T03:14:27.208Z,94.3
2015-12-10T03:15:27.148Z,94
2015-12-10T03:16:27.120Z,94
2015-12-10T03:17:27.026Z,93.8
2015-12-10T03:18:26.966Z,93
2015-12-10T03:19:26.906Z,92.6
2015-12-10T03:20:26.861Z,93.1
2015-12-10T03:21:26.817Z,92.9
2015-12-10T03:22:26.742Z,92.8
2015-12-10T03:23:26.683Z,93.2
2015-12-10T03:24:26.623Z,93.2
2015-12-10T03:25:26.563Z,92.5
2015-12-10T03:26:26.503Z,92.7
2015-12-10T03:27:26.459Z,92.4
2015-12-10T03:28:26.618Z,92.5
2015-12-10T03:29:26.340Z,92.8
2015-12-10T03:30:26.264Z,92.5
2015-12-10T03:31:26.220Z,91.2
2015-12-10T03:32:26.145Z,91.6
2015-12-10T03:33:26.101Z,91.4
2015-12-10T03:34:26.041Z,92.2
2015-12-10T03:35:25.981Z,92.7
2015-12-10T03:36:25.922Z,92.5
2015-12-10T03:37:25.862Z,92.6
2015-12-10T03:38:25.803Z,92.6
2015-12-10T03:39:25.742Z,92.6
2015-12-10T03:40:25.698Z,92.6
2015-12-10T03:41:25.623Z,92.1
2015-12-10T03:42:25.578Z,92.2
2015-12-10T03:43:25.520Z,92.8
2015-12-10T03:44:25.458Z,93.1
2015-12-10T03:45:25.415Z,93.1
2015-12-10T03:46:25.339Z,92.5
2015-12-10T03:47:25.296Z,91.9
2015-12-10T03:48:25.454Z,93.2
2015-12-10T03:49:25.176Z,92.4
2015-12-10T03:50:25.116Z,92
2015-12-10T03:51:25.041Z,91.5
2015-12-10T03:52:24.981Z,92.3
2015-12-10T03:53:24.938Z,91.4
2015-12-10T03:54:24.878Z,91.8
2015-12-10T03:55:24.097Z,91.8
2015-12-10T03:56:24.755Z,92.4
2015-12-10T03:57:24.696Z,91.6
2015-12-10T03:58:24.636Z,91.9
2015-12-10T03:59:24.591Z,92.6
2015-12-10T04:00:24.516Z,92.4
2015-12-10T04:01:24.472Z,92.6
2015-12-10T04:02:24.413Z,92.6
2015-12-10T04:03:24.368Z,92.4
2015-12-10T04:04:24.293Z,92.2
2015-12-10T04:05:23.499Z,92.5
2015-12-10T04:06:24.189Z,92.6
2015-12-10T04:07:24.130Z,92.5
2015-12-10T04:08:24.069Z,92
2015-12-10T04:09:24.025Z,92.1
2015-12-10T04:10:24.185Z,91
2015-12-10T04:11:23.890Z,91.5
2015-12-10T04:12:23.830Z,91.5
2015-12-10T04:13:23.771Z,91.3
2015-12-10T04:14:23.711Z,91.7
2015-12-10T04:15:23.651Z,92.2
2015-12-10T04:16:23.591Z,93.3
2015-12-10T04:17:23.532Z,94
2015-12-10T04:18:23.488Z,94.1
2015-12-10T04:19:23.427Z,94
2015-12-10T04:20:23.369Z,93.8
2015-12-10T04:21:23.324Z,93.7
2015-12-10T04:22:23.249Z,93.5
2015-12-10T04:23:23.189Z,92.8
2015-12-10T04:24:23.129Z,92.3
2015-12-10T04:25:23.069Z,93.2
2015-12-10T04:26:23.009Z,92.7
2015-12-10T04:27:22.966Z,92.8
2015-12-10T04:28:22.890Z,92.7
2015-12-10T04:29:22.846Z,91.9
2015-12-10T04:30:22.787Z,92.3
2015-12-10T04:31:22.727Z,91.5
2015-12-10T04:32:22.668Z,91.9
2015-12-10T04:33:22.607Z,91.6
2015-12-10T04:34:22.562Z,91.4
2015-12-10T04:35:22.484Z,92.3
2015-12-10T04:36:22.425Z,92.7
2015-12-10T04:37:22.365Z,93.2
2015-12-10T04:38:22.306Z,92.7
2015-12-10T04:39:22.261Z,94.1
2015-12-10T04:40:22.187Z,94.4
2015-12-10T04:41:22.142Z,94
2015-12-10T04:42:22.082Z,94
2015-12-10T04:43:22.022Z,93.6
2015-12-10T04:44:21.963Z,93.2
2015-12-10T04:45:21.903Z,93.2
2015-12-10T04:46:21.843Z,93.4
2015-12-10T04:47:21.784Z,92.8
2015-12-10T04:48:21.739Z,92.7
2015-12-10T04:49:21.679Z,92.7
2015-12-10T04:50:21.854Z,92.3
2015-12-10T04:51:21.560Z,92.6
2015-12-10T04:52:21.501Z,92.6
2015-12-10T04:53:21.441Z,93
2015-12-10T04:54:21.381Z,93.2
2015-12-10T04:55:21.555Z,93.3
2015-12-10T04:56:21.262Z,93.4
2015-12-10T04:57:21.201Z,93.2
2015-12-10T04:58:21.173Z,93.1
2015-12-10T04:59:21.082Z,92.9
2015-12-10T05:00:21.023Z,92.6
2015-12-10T05:01:20.963Z,92.3
2015-12-10T05:02:20.918Z,92.9
2015-12-10T05:03:20.859Z,92.9
2015-12-10T05:04:20.799Z,92.9
2015-12-10T05:05:20.973Z,93.5
2015-12-10T05:06:20.679Z,93.2
2015-12-10T05:07:20.620Z,93
2015-12-10T05:08:20.576Z,93.3
2015-12-10T05:09:20.501Z,93.1
2015-12-10T05:10:20.441Z,92.7
2015-12-10T05:11:20.397Z,92
2015-12-10T05:12:20.336Z,92.2
2015-12-10T05:13:20.277Z,92.1
2015-12-10T05:14:20.198Z,91.9
2015-12-10T05:15:20.155Z,92.3
2015-12-10T05:16:20.095Z,92.5
2015-12-10T05:17:20.036Z,92.5
2015-12-10T05:18:19.991Z,92.7
2015-12-10T05:19:19.916Z,92.3
2015-12-10T05:20:19.872Z,91.8
2015-12-10T05:21:19.842Z,91.8
2015-12-10T05:22:19.753Z,92.5
2015-12-10T05:23:19.692Z,92.9
2015-12-10T05:24:19.633Z,93
2015-12-10T05:25:19.589Z,92.9
2015-12-10T05:26:19.528Z,92.5
2015-12-10T05:27:19.469Z,92.6
2015-12-10T05:28:19.410Z,92.3
2015-12-10T05:29:19.350Z,92
2015-12-10T05:30:19.305Z,91.8
2015-12-10T05:31:19.245Z,92
2015-12-10T05:32:19.171Z,92.4
2015-12-10T05:33:19.111Z,92.4
2015-12-10T05:34:19.050Z,92
2015-12-10T05:35:19.006Z,91.7
2015-12-10T05:36:18.947Z,91.8
2015-12-10T05:37:18.887Z,91.8
2015-12-10T05:38:18.827Z,91.8
2015-12-10T05:39:18.955Z,92.6
2015-12-10T05:40:18.708Z,92.3
2015-12-10T05:41:18.664Z,92
2015-12-10T05:42:18.605Z,91.8
2015-12-10T05:43:18.545Z,92
2015-12-10T05:44:18.531Z,91.2
2015-12-10T05:45:18.878Z,91.3
2015-12-10T05:46:18.366Z,91.6
2015-12-10T05:47:18.305Z,91.3
2015-12-10T05:48:18.247Z,91.7
2015-12-10T05:49:18.030Z,91.5
2015-12-10T05:50:18.127Z,91.9
2015-12-10T05:51:18.083Z,91.9
2015-12-10T05:52:18.038Z,91.7
2015-12-10T05:53:17.944Z,91.6
2015-12-10T05:54:17.900Z,92
2015-12-10T05:55:17.841Z,91.9
2015-12-10T05:56:17.780Z,92.7
2015-12-10T05:57:17.721Z,92
2015-12-10T05:58:17.661Z,92
2015-12-10T05:59:17.601Z,92.2
2015-12-10T06:00:17.777Z,92.2
2015-12-10T06:01:17.497Z,92.1
2015-12-10T06:02:17.438Z,92.3
2015-12-10T06:03:17.612Z,92.8
2015-12-10T06:04:17.319Z,93.3
2015-12-10T06:05:17.259Z,93.2
2015-12-10T06:06:17.199Z,93
2015-12-10T06:07:17.139Z,93
2015-12-10T06:08:17.313Z,93.4
2015-12-10T06:09:17.020Z,93.6
2015-12-10T06:10:16.960Z,93.2
2015-12-10T06:11:16.916Z,93.4
2015-12-10T06:12:16.855Z,93
2015-12-10T06:13:16.780Z,92.6
2015-12-10T06:14:16.722Z,93
2015-12-10T06:15:16.677Z,93.1
2015-12-10T06:16:16.680Z,92.6
2015-12-10T06:17:16.558Z,92.8
2015-12-10T06:18:16.498Z,92.8
2015-12-10T06:19:16.438Z,92
2015-12-10T06:20:16.378Z,92.6
2015-12-10T06:21:16.334Z,91.9
2015-12-10T06:22:16.259Z,92.4
2015-12-10T06:23:16.199Z,92.5
2015-12-10T06:24:16.155Z,92.2
2015-12-10T06:25:16.080Z,92
2015-12-10T06:26:16.035Z,92.5
2015-12-10T06:27:16.210Z,92.5
2015-12-10T06:28:15.915Z,92.4
2015-12-10T06:29:15.857Z,92.4
2015-12-10T06:30:15.796Z,92.1
2015-12-10T06:31:15.752Z,92.1
2015-12-10T06:32:15.693Z,91.4
2015-12-10T06:33:15.633Z,91.6
2015-12-10T06:34:15.791Z,92
2015-12-10T06:35:15.510Z,91.7
2015-12-10T06:36:15.450Z,92
2015-12-10T06:37:15.390Z,92.1
2015-12-10T06:38:15.331Z,91.6
2015-12-10T06:39:15.271Z,91.6
2015-12-10T06:40:15.227Z,91.5
2015-12-10T06:41:15.168Z,92
2015-12-10T06:42:15.093Z,91.8
2015-12-10T06:43:15.032Z,92
2015-12-10T06:44:14.973Z,92
2015-12-10T06:45:14.928Z,92.3
2015-12-10T06:46:14.885Z,92.5
2015-12-10T06:47:14.809Z,92.4
2015-12-10T06:48:14.748Z,92.1
2015-12-10T06:49:14.689Z,92.2
2015-12-10T06:50:14.629Z,91.4
2015-12-10T06:51:14.570Z,91.2
2015-12-10T06:52:14.745Z,91.9
2015-12-10T06:53:14.450Z,91.9
2015-12-10T06:54:14.406Z,91.9
2015-12-10T06:55:14.346Z,92.2
2015-12-10T06:56:14.287Z,92.5
2015-12-10T06:57:14.227Z,92.6
2015-12-10T06:58:14.167Z,92.3
2015-12-10T06:59:14.107Z,91.9
2015-12-10T07:00:14.048Z,92
2015-12-10T07:01:13.991Z,91.5
2015-12-10T07:02:13.933Z,91.5
2015-12-10T07:03:14.107Z,92.5
2015-12-10T07:04:13.813Z,93.2
2015-12-10T07:05:13.769Z,93.4
2015-12-10T07:06:13.928Z,93.1
2015-12-10T07:07:13.665Z,92.8
2015-12-10T07:08:13.589Z,93
2015-12-10T07:09:13.520Z,93.3
2015-12-10T07:10:13.443Z,93.3
2015-12-10T07:11:13.352Z,93.1
2015-12-10T07:12:13.292Z,93.5
2015-12-10T07:13:13.217Z,93.3
2015-12-10T07:14:13.154Z,93.4
2015-12-10T07:15:13.101Z,93.2
2015-12-10T07:16:13.020Z,93.2
2015-12-10T07:17:12.955Z,92.9
2015-12-10T07:18:12.905Z,93
2015-12-10T07:19:12.839Z,92.7
2015-12-10T07:20:12.760Z,91.8
2015-12-10T07:21:12.715Z,91.5
2015-12-10T07:22:12.653Z,91.7
2015-12-10T07:23:12.591Z,92
2015-12-10T07:24:12.530Z,92.2
2015-12-10T07:25:12.469Z,91.8
2015-12-10T07:26:12.642Z,92.7
2015-12-10T07:27:12.348Z,92.7
2015-12-10T07:28:12.303Z,92.9
2015-12-10T07:29:12.227Z,92.4
2015-12-10T07:30:12.417Z,92.5
2015-12-10T07:31:12.123Z,92.4
2015-12-10T07:32:12.063Z,92.4
2015-12-10T07:33:12.003Z,92.4
2015-12-10T07:34:11.944Z,92.3
2015-12-10T07:35:11.884Z,92.5
2015-12-10T07:36:11.825Z,92.7
2015-12-10T07:37:11.764Z,92.4
2015-12-10T07:38:11.720Z,92.8
2015-12-10T07:39:11.660Z,92.4
2015-12-10T07:40:11.600Z,91.6
2015-12-10T07:41:11.525Z,91.6
2015-12-10T07:42:11.481Z,91.4
2015-12-10T07:43:11.422Z,91.7
2015-12-10T07:44:11.597Z,91.8
2015-12-10T07:45:11.302Z,91.9
2015-12-10T07:46:11.242Z,91.2
2015-12-10T07:47:11.183Z,90.5
2015-12-10T07:48:11.122Z,88.7
2015-12-10T07:49:11.079Z,87.7
2015-12-10T07:50:11.004Z,87.1
2015-12-10T07:51:10.975Z,87.8
2015-12-10T07:52:10.900Z,87.1
2015-12-10T07:53:10.856Z,87.7
2015-12-10T07:54:10.778Z,88.6
2015-12-10T07:55:10.717Z,88.8
2015-12-10T07:56:10.657Z,88.2
2015-12-10T07:57:10.597Z,87.3
2015-12-10T07:58:10.555Z,87.5
2015-12-10T07:59:10.493Z,87.8
2015-12-10T08:00:10.435Z,88.1
2015-12-10T08:01:10.375Z,87.8
2015-12-10T08:02:10.315Z,88.1
2015-12-10T08:03:10.255Z,89
2015-12-10T08:04:10.227Z,89.7
2015-12-10T08:05:10.151Z,88.9
2015-12-10T08:06:10.091Z,89.5
2015-12-10T08:07:10.032Z,89.7
2015-12-10T08:08:09.987Z,89.8
2015-12-10T08:09:09.912Z,90.1
2015-12-10T08:10:09.852Z,89.3
2015-12-10T08:11:09.808Z,90
2015-12-10T08:12:09.748Z,89.9
2015-12-10T08:13:09.689Z,89.8
2015-12-10T08:14:09.629Z,90.1
2015-12-10T08:15:09.554Z,89.7
2015-12-10T08:16:09.510Z,88.9
2015-12-10T08:17:09.466Z,88.8
2015-12-10T08:18:09.406Z,89.1
2015-12-10T08:19:09.346Z,88.9
2015-12-10T08:20:09.286Z,88.6
2015-12-10T08:21:09.243Z,88.2
2015-12-10T08:22:09.182Z,88
2015-12-10T08:23:09.123Z,88.1
2015-12-10T08:24:09.063Z,87.9
2015-12-10T08:25:09.003Z,87.6
2015-12-10T08:26:08.943Z,87.3
2015-12-10T08:27:08.885Z,87.4
2015-12-10T08:28:08.824Z,87.6
2015-12-10T08:29:08.765Z,87.6
2015-12-10T08:30:08.705Z,87.6
2015-12-10T08:31:08.677Z,87.6
2015-12-10T08:32:08.616Z,87.7
2015-12-10T08:33:08.538Z,88.1
2015-12-10T08:34:08.510Z,88
2015-12-10T08:35:08.434Z,87.7
2015-12-10T08:36:08.390Z,86.9
2015-12-10T08:37:08.315Z,86.1
2015-12-10T08:38:08.270Z,86.1
2015-12-10T08:39:08.211Z,85.9
2015-12-10T08:40:08.151Z,85.6
2015-12-10T08:41:08.107Z,84.6
2015-12-10T08:42:08.032Z,83.8
2015-12-10T08:43:07.987Z,82.4
2015-12-10T08:44:08.162Z,82.4
2015-12-10T08:45:07.868Z,82.2
2015-12-10T08:46:07.824Z,81.4
2015-12-10T08:47:07.765Z,79.7
2015-12-10T08:48:07.704Z,75.9
2015-12-10T08:49:07.660Z,73.5
2015-12-10T08:50:07.616Z,70.6
2015-12-10T08:51:07.557Z,67.6
2015-12-10T08:52:07.496Z,65.7
2015-12-10T08:53:07.671Z,62.8
2015-12-10T08:54:07.393Z,61.3
2015-12-10T08:55:07.334Z,60.5
2015-12-10T08:56:07.289Z,60.5
2015-12-10T08:57:07.229Z,59.2
2015-12-10T08:58:07.185Z,58.3
2015-12-10T08:59:07.126Z,56.9
2015-12-10T09:00:07.081Z,56.7
2015-12-10T09:01:07.021Z,58.1
2015-12-10T09:02:06.978Z,56.9
2015-12-10T09:03:06.934Z,56.8
2015-12-10T09:04:06.890Z,56.1
2015-12-10T09:05:06.814Z,55.8
2015-12-10T09:06:06.770Z,55.9
2015-12-10T09:07:06.726Z,57.2
2015-12-10T09:08:06.665Z,59.1
2015-12-10T09:09:06.622Z,59.7
2015-12-10T09:10:06.562Z,61.4
2015-12-10T09:11:06.517Z,60.3
2015-12-10T09:12:06.301Z,60.8
2015-12-10T09:13:06.414Z,61.7
2015-12-10T09:14:06.370Z,61.3
2015-12-10T09:15:06.307Z,62.4
2015-12-10T09:16:06.482Z,62.5
2015-12-10T09:17:06.203Z,61.4
2015-12-10T09:18:06.159Z,60.2
2015-12-10T09:19:06.100Z,59.3
2015-12-10T09:20:06.039Z,57.6
2015-12-10T09:21:05.995Z,57.2
2015-12-10T09:22:05.936Z,57.3
2015-12-10T09:23:05.892Z,56.3
2015-12-10T09:24:05.847Z,56.6
2015-12-10T09:25:05.789Z,56
2015-12-10T09:26:05.744Z,55
2015-12-10T09:27:05.684Z,54
2015-12-10T09:28:05.639Z,54.1
2015-12-10T09:29:05.580Z,53.3
2015-12-10T09:30:05.520Z,53.4
2015-12-10T09:31:05.491Z,51.5
2015-12-10T09:32:05.433Z,51.6
2015-12-10T09:33:05.403Z,51
2015-12-10T09:34:05.328Z,50.4
2015-12-10T09:35:05.502Z,49.3
2015-12-10T09:36:05.224Z,49
2015-12-10T09:37:05.180Z,47.4
2015-12-10T09:38:05.136Z,49.8
2015-12-10T09:39:05.077Z,49.7
2015-12-10T09:40:05.016Z,49.9
2015-12-10T09:41:04.972Z,49.9
2015-12-10T09:42:04.928Z,48.8
2015-12-10T09:43:04.883Z,50
2015-12-10T09:44:04.824Z,50.1
2015-12-10T09:45:04.780Z,48.6
2015-12-10T09:46:04.720Z,48.4
2015-12-10T09:47:04.692Z,51.6
2015-12-10T09:48:04.616Z,50.3
2015-12-10T09:49:04.572Z,52.9
2015-12-10T09:50:04.527Z,52.2
2015-12-10T09:51:04.468Z,52.9
2015-12-10T09:52:04.424Z,54.7
2015-12-10T09:53:04.598Z,53.9
2015-12-10T09:54:04.321Z,54.7
2015-12-10T09:55:04.276Z,52.8
2015-12-10T09:56:04.215Z,52.6
2015-12-10T09:57:04.156Z,55.6
2015-12-10T09:58:04.112Z,55
2015-12-10T09:59:04.068Z,56
2015-12-10T10:00:04.009Z,58.3
2015-12-10T10:01:03.948Z,59.8
2015-12-10T10:02:03.904Z,62.8
2015-12-10T10:03:03.845Z,62.8
2015-12-10T10:04:03.785Z,63
2015-12-10T10:05:03.741Z,64.4
2015-12-10T10:06:03.681Z,65.6
2015-12-10T10:07:03.620Z,66.5
2015-12-10T10:08:03.593Z,66.3
2015-12-10T10:09:03.517Z,66.2
2015-12-10T10:10:03.473Z,66.7
2015-12-10T10:11:03.414Z,67.7
2015-12-10T10:12:03.353Z,66.6
2015-12-10T10:13:03.309Z,66.3
2015-12-10T10:14:03.264Z,65.8
2015-12-10T10:15:03.205Z,64.6
2015-12-10T10:16:03.145Z,59.8
2015-12-10T10:17:03.101Z,56.7
2015-12-10T10:18:03.058Z,53.7
2015-12-10T10:19:02.997Z,50.6
2015-12-10T10:20:02.952Z,50
2015-12-10T10:21:02.908Z,49.9
2015-12-10T10:22:02.850Z,49.9
2015-12-10T10:23:02.805Z,49.3
2015-12-10T10:24:02.742Z,49.7
2015-12-10T10:25:02.699Z,50.4
2015-12-10T10:26:02.654Z,52.2
2015-12-10T10:27:02.610Z,53.2
2015-12-10T10:28:02.565Z,52.7
2015-12-10T10:29:02.506Z,53.3
2015-12-10T10:30:02.447Z,53.4
2015-12-10T10:31:02.402Z,53.6
2015-12-10T10:32:02.358Z,52.5
2015-12-10T10:33:02.298Z,52.3
2015-12-10T10:34:02.254Z,53
2015-12-10T10:35:02.194Z,51.6
2015-12-10T10:36:02.149Z,50.4
2015-12-10T10:37:02.090Z,50.6
2015-12-10T10:38:02.046Z,49.8
2015-12-10T10:39:02.237Z,50.3
2015-12-10T10:40:01.943Z,52.4
2015-12-10T10:41:01.898Z,53.1
2015-12-10T10:42:01.854Z,57.3
2015-12-10T10:43:01.778Z,61.7
2015-12-10T10:44:01.734Z,65.1
2015-12-10T10:45:01.690Z,67.1
2015-12-10T10:46:01.631Z,68.4
2015-12-10T10:47:01.571Z,67.9
2015-12-10T10:48:01.526Z,68.6
2015-12-10T10:49:01.467Z,67.9
2015-12-10T10:50:01.407Z,68.4
2015-12-10T10:51:01.363Z,68.6
2015-12-10T10:52:01.303Z,69.4
2015-12-10T10:53:01.258Z,68.1
2015-12-10T10:54:01.183Z,68.9
2015-12-10T10:55:01.139Z,68.1
2015-12-10T10:56:01.095Z,65.8
2015-12-10T10:57:01.036Z,60.9
2015-12-10T10:58:00.991Z,57.2
2015-12-10T10:59:00.931Z,55
2015-12-10T11:00:00.887Z,53
2015-12-10T11:01:00.827Z,51.4
2015-12-10T11:02:00.783Z,50.1
2015-12-10T11:03:00.722Z,50.2
2015-12-10T11:04:00.679Z,48.6
2015-12-10T11:05:00.635Z,46.9
2015-12-10T11:06:00.591Z,47.7
2015-12-10T11:07:00.530Z,49.1
2015-12-10T11:08:00.471Z,49.6
2015-12-10T11:09:00.427Z,52.5
2015-12-10T11:10:00.383Z,55.9
2015-12-10T11:11:00.323Z,58.9
2015-12-10T11:12:00.497Z,61.4
2015-12-10T11:13:00.218Z,62.6
2015-12-10T11:14:00.160Z,64.8
2015-12-10T11:15:00.130Z,65.8
2015-12-10T11:16:00.055Z,65.8
2015-12-10T11:16:59.995Z,66.6
2015-12-10T11:17:59.951Z,66.6
2015-12-10T11:18:59.891Z,66.4
2015-12-10T11:19:59.878Z,63.4
2015-12-10T11:20:59.787Z,60.6
2015-12-10T11:21:59.962Z,57.7
2015-12-10T11:22:59.684Z,56.7
2015-12-10T11:23:59.639Z,55.9
2015-12-10T11:24:59.579Z,56.4
2015-12-10T11:25:59.519Z,58.1
2015-12-10T11:26:59.459Z,60.5
2015-12-10T11:27:59.431Z,62.5
2015-12-10T11:28:59.372Z,64.3
2015-12-10T11:29:59.312Z,65.2
2015-12-10T11:30:59.252Z,66
2015-12-10T11:31:59.208Z,66.5
2015-12-10T11:32:59.148Z,67.1
2015-12-10T11:33:59.088Z,67.7
2015-12-10T11:34:59.045Z,67.5
2015-12-10T11:35:58.984Z,68.3
2015-12-10T11:36:58.925Z,64.3
2015-12-10T11:37:58.881Z,60.9
2015-12-10T11:38:58.837Z,59.2
2015-12-10T11:39:58.777Z,55.6
2015-12-10T11:40:58.733Z,55.5
2015-12-10T11:41:58.657Z,53.6
2015-12-10T11:42:58.628Z,50.8
2015-12-10T11:43:58.584Z,50.4
2015-12-10T11:44:58.525Z,49.3
2015-12-10T11:45:58.481Z,50
2015-12-10T11:46:58.422Z,48.5
2015-12-10T11:47:58.377Z,46.8
2015-12-10T11:48:58.317Z,47.4
2015-12-10T11:49:58.270Z,48
2015-12-10T11:50:58.226Z,50.3
2015-12-10T11:51:58.183Z,50.3
2015-12-10T11:52:58.122Z,50.8
2015-12-10T11:53:58.078Z,51.6
2015-12-10T11:54:58.034Z,50.1
2015-12-10T11:55:57.990Z,50
2015-12-10T11:56:57.946Z,49.2
2015-12-10T11:57:57.886Z,47.1
2015-12-10T11:58:57.857Z,47.7
2015-12-10T11:59:57.782Z,48.6
2015-12-10T12:00:57.738Z,48
2015-12-10T12:01:57.694Z,46.2
2015-12-10T12:02:57.650Z,46
2015-12-10T12:03:57.606Z,46.4
2015-12-10T12:04:57.547Z,47
2015-12-10T12:05:57.502Z,48.7
2015-12-10T12:06:57.458Z,49.8
2015-12-10T12:07:57.398Z,47
2015-12-10T12:08:57.354Z,47.1
2015-12-10T12:09:57.294Z,47.5
2015-12-10T12:10:57.250Z,45.5
2015-12-10T12:11:57.191Z,46.4
2015-12-10T12:12:57.161Z,45.3
2015-12-10T12:13:57.102Z,45.7
2015-12-10T12:14:57.042Z,44.3
2015-12-10T12:15:56.999Z,43.8
2015-12-10T12:16:56.955Z,44.4
2015-12-10T12:17:56.911Z,44.7
2015-12-10T12:18:56.866Z,44.3
2015-12-10T12:19:56.805Z,43.8
2015-12-10T12:20:56.747Z,45
2015-12-10T12:21:56.702Z,45.7
2015-12-10T12:22:56.658Z,47.2
2015-12-10T12:23:56.598Z,48.6
2015-12-10T12:24:56.554Z,48.9
2015-12-10T12:25:56.494Z,49.9
2015-12-10T12:26:56.450Z,51
2015-12-10T12:27:56.407Z,51
2015-12-10T12:28:56.362Z,50.4
2015-12-10T12:29:56.521Z,51
2015-12-10T12:30:56.240Z,50
2015-12-10T12:31:56.195Z,50.6
2015-12-10T12:32:56.135Z,52
2015-12-10T12:33:56.076Z,52.4
2015-12-10T12:34:56.016Z,53
2015-12-10T12:35:55.972Z,52.7
2015-12-10T12:36:55.929Z,53.3
2015-12-10T12:37:55.868Z,54.9
2015-12-10T12:38:55.854Z,54.7
2015-12-10T12:39:55.765Z,54.1
2015-12-10T12:40:55.720Z,53
2015-12-10T12:41:55.660Z,51.3
2015-12-10T12:42:55.604Z,50.8
2015-12-10T12:43:55.617Z,50.7
2015-12-10T12:44:55.667Z,51.7
2015-12-10T12:45:55.155Z,50.8
2015-12-10T12:46:55.439Z,49.5
2015-12-10T12:47:55.191Z,49.2
2015-12-10T12:48:55.147Z,47.5
2015-12-10T12:49:55.260Z,46.9
2015-12-10T12:50:55.380Z,46.6
2015-12-10T12:51:55.225Z,46.3
2015-12-10T12:52:55.103Z,45.9
2015-12-10T12:53:55.044Z,45.9
2015-12-10T12:54:55.047Z,45.3
2015-12-10T12:55:54.972Z,44.7
2015-12-10T12:56:54.943Z,44.1
2015-12-10T12:57:54.852Z,43.9
2015-12-10T12:58:54.792Z,44.5
2015-12-10T12:59:54.748Z,44
2015-12-10T13:00:54.719Z,43.3
2015-12-10T13:01:54.661Z,45.1
2015-12-10T13:02:54.610Z,44.3
2015-12-10T13:03:54.550Z,43.6
2015-12-10T13:04:54.507Z,43.9
2015-12-10T13:05:54.463Z,42.7
2015-12-10T13:06:54.419Z,44.3
2015-12-10T13:07:54.358Z,44.1
2015-12-10T13:08:54.550Z,43.9
2015-12-10T13:09:54.271Z,45.6
2015-12-10T13:10:54.227Z,45.9
2015-12-10T13:11:54.386Z,45.6
2015-12-10T13:12:54.108Z,45.4
2015-12-10T13:13:54.064Z,45.5
2015-12-10T13:14:54.019Z,45
2015-12-10T13:15:53.959Z,45.7
2015-12-10T13:16:53.915Z,46
2015-12-10T13:17:53.868Z,46.4
2015-12-10T13:18:53.794Z,47.1
2015-12-10T13:19:53.751Z,47.8
2015-12-10T13:20:53.706Z,49.5
2015-12-10T13:21:53.646Z,49.8
2015-12-10T13:22:53.602Z,50.8
2015-12-10T13:23:53.558Z,51
2015-12-10T13:24:53.499Z,51.3